createdAt,value
2018-07-05T00:00:41.624Z,13.10
2018-07-05T00:03:23.384Z,14.20
2018-07-05T00:06:04.506Z,14.23
2018-07-05T00:08:45.880Z,13.70
2018-07-05T00:11:27.722Z,13.50
2018-07-05T00:14:09.493Z,12.67
2018-07-05T00:16:50.785Z,12.37
2018-07-05T00:19:32.316Z,13.30
2018-07-05T00:22:14.019Z,13.10
2018-07-05T00:24:55.828Z,12.40
2018-07-05T00:27:37.738Z,13.60
2018-07-05T00:30:19.471Z,13.10
2018-07-05T00:33:01.623Z,12.80
2018-07-05T00:35:43.003Z,12.97
2018-07-05T00:38:24.411Z,13.50
2018-07-05T00:41:05.877Z,12.87
2018-07-05T00:43:48.161Z,12.47
2018-07-05T00:46:29.955Z,11.60
2018-07-05T00:49:11.387Z,11.50
2018-07-05T00:51:52.750Z,11.80
2018-07-05T00:54:34.624Z,12.17
2018-07-05T00:57:16.609Z,11.77
2018-07-05T00:59:58.662Z,11.73
2018-07-05T01:02:40.965Z,13.00
2018-07-05T01:05:22.633Z,13.10
2018-07-05T01:08:03.941Z,12.83
2018-07-05T01:10:45.612Z,12.70
2018-07-05T01:13:27.504Z,12.67
2018-07-05T01:16:09.296Z,12.07
2018-07-05T01:18:51.087Z,12.30
2018-07-05T01:21:32.767Z,11.93
2018-07-05T01:24:14.492Z,12.20
2018-07-05T01:26:56.272Z,12.10
2018-07-05T01:29:38.347Z,11.10
2018-07-05T01:32:19.844Z,11.50
2018-07-05T01:35:01.531Z,11.50
2018-07-05T01:37:43.458Z,11.37
2018-07-05T01:40:25.257Z,11.13
2018-07-05T01:43:06.832Z,11.67
2018-07-05T01:45:48.738Z,11.77
2018-07-05T01:48:30.125Z,10.83
2018-07-05T01:51:11.919Z,11.90
2018-07-05T01:53:54.108Z,11.37
2018-07-05T01:56:35.898Z,12.13
2018-07-05T01:59:17.726Z,12.33
2018-07-05T02:01:59.763Z,11.37
2018-07-05T02:04:41.745Z,10.93
2018-07-05T02:07:23.290Z,10.57
2018-07-05T02:10:04.900Z,8.73
2018-07-05T02:12:46.567Z,8.80
2018-07-05T02:15:28.156Z,8.37
2018-07-05T02:18:10.357Z,8.27
2018-07-05T02:20:51.956Z,7.93
2018-07-05T02:23:33.657Z,9.07
2018-07-05T02:26:15.221Z,9.40
2018-07-05T02:28:57.129Z,9.63
2018-07-05T02:31:38.512Z,9.10
2018-07-05T02:34:19.599Z,9.33
2018-07-05T02:37:01.671Z,9.33
2018-07-05T02:39:48.287Z,9.53
2018-07-05T02:42:30.189Z,10.10
2018-07-05T02:45:11.589Z,11.17
2018-07-05T02:47:53.911Z,11.07
2018-07-05T02:50:35.631Z,10.33
2018-07-05T02:53:17.587Z,12.30
2018-07-05T02:55:59.463Z,11.77
2018-07-05T02:58:41.146Z,12.77
2018-07-05T03:01:23.269Z,13.20
2018-07-05T03:04:05.430Z,13.30
2018-07-05T03:06:47.488Z,11.90
2018-07-05T03:09:29.469Z,11.67
2018-07-05T03:12:11.549Z,12.90
2018-07-05T03:14:53.321Z,11.83
2018-07-05T03:17:35.432Z,13.50
2018-07-05T03:20:17.074Z,13.67
2018-07-05T03:22:59.055Z,12.93
2018-07-05T03:25:40.335Z,13.67
2018-07-05T03:28:22.121Z,13.63
2018-07-05T03:31:03.869Z,14.00
2018-07-05T03:33:45.822Z,13.83
2018-07-05T03:36:27.873Z,13.97
2018-07-05T03:39:09.035Z,13.40
2018-07-05T03:41:50.813Z,13.83
2018-07-05T03:44:32.905Z,13.53
2018-07-05T03:47:14.720Z,12.70
2018-07-05T03:49:56.762Z,13.70
2018-07-05T03:52:37.794Z,13.63
2018-07-05T03:55:19.507Z,14.33
2018-07-05T03:58:02.482Z,14.47
2018-07-05T04:00:46.961Z,15.27
2018-07-05T04:03:30.043Z,15.53
2018-07-05T04:06:11.450Z,15.67
2018-07-05T04:08:53.451Z,17.10
2018-07-05T04:11:35.663Z,16.77
2018-07-05T04:14:17.352Z,16.07
2018-07-05T04:16:59.310Z,15.50
2018-07-05T04:19:51.483Z,16.23
2018-07-05T04:22:33.270Z,16.00
2018-07-05T04:25:14.451Z,15.20
2018-07-05T04:27:56.639Z,15.43
2018-07-05T04:30:38.247Z,16.33
2018-07-05T04:33:19.762Z,17.37
2018-07-05T04:36:01.630Z,15.87
2018-07-05T04:38:43.339Z,15.57
2018-07-05T04:41:25.209Z,16.23
2018-07-05T04:44:06.467Z,14.83
2018-07-05T04:46:48.630Z,15.20
2018-07-05T04:49:30.545Z,16.70
2018-07-05T04:52:12.203Z,16.10
2018-07-05T04:54:54.337Z,16.60
2018-07-05T04:57:36.177Z,16.80
2018-07-05T05:00:17.590Z,15.13
2018-07-05T05:02:59.146Z,16.53
2018-07-05T05:05:40.901Z,17.37
2018-07-05T05:08:23.469Z,16.37
2018-07-05T05:11:05.255Z,16.20
2018-07-05T05:13:46.944Z,17.23
2018-07-05T05:16:28.129Z,17.77
2018-07-05T05:19:10.029Z,19.13
2018-07-05T05:21:52.035Z,14.33
2018-07-05T05:24:33.520Z,12.40
2018-07-05T05:27:14.601Z,13.10
2018-07-05T05:29:56.765Z,12.27
2018-07-05T05:32:39.333Z,13.30
2018-07-05T05:35:21.629Z,13.13
2018-07-05T05:38:03.997Z,12.63
2018-07-05T05:40:46.433Z,12.97
2018-07-05T05:43:28.802Z,13.17
2018-07-05T05:46:11.052Z,12.90
2018-07-05T05:48:54.018Z,13.33
2018-07-05T05:51:35.663Z,12.47
2018-07-05T05:54:17.308Z,12.93
2018-07-05T05:56:59.187Z,12.07
2018-07-05T05:59:40.507Z,12.43
2018-07-05T06:02:22.023Z,12.43
2018-07-05T06:05:03.398Z,12.77
2018-07-05T06:07:44.471Z,12.77
2018-07-05T06:10:27.045Z,11.97
2018-07-05T06:13:08.959Z,12.03
2018-07-05T06:15:49.771Z,12.27
2018-07-05T06:18:31.239Z,11.33
2018-07-05T06:21:12.300Z,12.07
2018-07-05T06:23:54.201Z,13.37
2018-07-05T06:26:35.370Z,13.10
2018-07-05T06:29:16.359Z,12.70
2018-07-05T06:31:58.834Z,12.70
2018-07-05T06:34:41.319Z,11.73
2018-07-05T06:37:22.661Z,11.83
2018-07-05T06:40:03.950Z,9.90
2018-07-05T06:42:45.529Z,11.30
2018-07-05T06:45:27.999Z,10.30
2018-07-05T06:48:10.057Z,10.87
2018-07-05T06:50:51.734Z,11.00
2018-07-05T06:53:33.444Z,11.27
2018-07-05T06:56:15.019Z,10.30
2018-07-05T06:58:56.598Z,9.80
2018-07-05T07:01:38.416Z,9.47
2018-07-05T07:04:19.982Z,9.23
2018-07-05T07:07:01.681Z,9.97
2018-07-05T07:09:43.446Z,7.90
2018-07-05T07:12:25.930Z,8.60
2018-07-05T07:15:08.192Z,9.80
2018-07-05T07:17:50.752Z,8.47
2018-07-05T07:20:31.786Z,7.77
2018-07-05T07:23:13.927Z,8.00
2018-07-05T07:25:55.707Z,7.17
2018-07-05T07:28:38.597Z,8.40
2018-07-05T07:31:19.754Z,8.77
2018-07-05T07:34:01.036Z,7.67
2018-07-05T07:36:42.739Z,8.03
2018-07-05T07:39:24.756Z,8.37
2018-07-05T07:41:54.438Z,7.17
2018-07-05T07:44:23.477Z,7.00
2018-07-05T07:46:53.715Z,9.13
2018-07-05T07:49:22.975Z,7.33
2018-07-05T07:51:51.703Z,7.47
2018-07-05T07:54:21.242Z,7.43
2018-07-05T07:56:51.011Z,6.63
2018-07-05T07:59:20.414Z,7.03
2018-07-05T08:01:50.130Z,7.47
2018-07-05T08:04:19.704Z,7.07
2018-07-05T08:06:49.016Z,7.80
2018-07-05T08:09:18.497Z,7.10
2018-07-05T08:11:47.908Z,7.00
2018-07-05T08:14:17.644Z,6.70
2018-07-05T08:16:46.936Z,6.30
2018-07-05T08:19:16.753Z,6.97
2018-07-05T08:21:46.346Z,7.03
2018-07-05T08:24:15.410Z,6.43
2018-07-05T08:26:45.329Z,6.33
2018-07-05T08:29:14.817Z,6.67
2018-07-05T08:31:43.960Z,7.50
2018-07-05T08:34:14.109Z,7.53
2018-07-05T08:36:43.255Z,6.03
2018-07-05T08:39:15.500Z,7.00
2018-07-05T08:41:45.155Z,7.10
2018-07-05T08:44:14.687Z,7.17
2018-07-05T08:46:44.299Z,6.87
2018-07-05T08:49:13.526Z,7.20
2018-07-05T08:51:42.751Z,9.07
2018-07-05T08:54:11.561Z,7.00
2018-07-05T08:56:40.794Z,8.00
2018-07-05T08:59:09.649Z,8.90
2018-07-05T09:01:39.367Z,7.17
2018-07-05T09:04:08.911Z,8.57
2018-07-05T09:06:38.375Z,8.33
2018-07-05T09:09:07.344Z,7.20
2018-07-05T09:11:37.020Z,7.90
2018-07-05T09:14:06.167Z,7.87
2018-07-05T09:16:35.280Z,7.87
2018-07-05T09:19:04.475Z,8.40
2018-07-05T09:21:33.363Z,8.10
2018-07-05T09:24:02.255Z,7.37
2018-07-05T09:26:31.268Z,6.80
2018-07-05T09:29:00.667Z,6.60
2018-07-05T09:31:30.540Z,6.63
2018-07-05T09:33:59.774Z,7.00
2018-07-05T09:36:29.193Z,7.03
2018-07-05T09:38:58.528Z,7.23
2018-07-05T09:41:27.973Z,6.50
2018-07-05T09:43:56.553Z,6.83
2018-07-05T09:46:26.482Z,6.47
2018-07-05T09:49:00.115Z,6.50
2018-07-05T09:51:29.260Z,6.70
2018-07-05T09:53:59.122Z,7.00
2018-07-05T09:56:28.386Z,6.33
2018-07-05T09:58:57.786Z,6.37
2018-07-05T10:01:27.576Z,6.80
2018-07-05T10:03:56.784Z,6.60
2018-07-05T10:06:26.417Z,6.63
2018-07-05T10:08:56.298Z,7.03
2018-07-05T10:11:25.877Z,6.93
2018-07-05T10:13:54.745Z,6.93
2018-07-05T10:16:24.411Z,7.43
2018-07-05T10:18:53.602Z,7.13
2018-07-05T10:21:23.228Z,7.57
2018-07-05T10:23:52.957Z,7.27
2018-07-05T10:26:24.074Z,7.37
2018-07-05T10:29:13.603Z,7.60
2018-07-05T10:31:55.837Z,7.93
2018-07-05T10:34:25.818Z,7.83
2018-07-05T10:36:55.568Z,7.90
2018-07-05T10:39:25.420Z,8.83
2018-07-05T10:42:07.768Z,8.00
2018-07-05T10:44:50.504Z,8.00
2018-07-05T10:47:32.831Z,8.43
2018-07-05T10:50:14.629Z,8.17
2018-07-05T10:52:56.539Z,9.50
2018-07-05T10:55:37.921Z,9.20
2018-07-05T10:58:19.310Z,9.53
2018-07-05T11:01:00.069Z,8.53
2018-07-05T11:03:40.948Z,8.57
2018-07-05T11:06:21.822Z,9.27
2018-07-05T11:09:02.684Z,8.80
2018-07-05T11:11:43.879Z,9.47
2018-07-05T11:14:24.981Z,9.57
2018-07-05T11:17:06.034Z,9.90
2018-07-05T11:19:47.424Z,10.00
2018-07-05T11:22:28.363Z,8.37
2018-07-05T11:25:09.375Z,9.67
2018-07-05T11:27:50.452Z,8.97
2018-07-05T11:30:31.517Z,9.70
2018-07-05T11:33:12.490Z,8.80
2018-07-05T11:35:53.431Z,8.70
2018-07-05T11:38:34.646Z,10.13
2018-07-05T11:41:15.625Z,9.33
2018-07-05T11:43:56.603Z,8.57
2018-07-05T11:46:38.513Z,7.53
2018-07-05T11:49:19.577Z,7.73
2018-07-05T11:52:00.551Z,9.27
2018-07-05T11:54:41.443Z,11.07
2018-07-05T11:57:22.378Z,8.80
2018-07-05T12:00:03.370Z,9.20
2018-07-05T12:02:44.482Z,7.87
2018-07-05T12:05:25.631Z,7.00
2018-07-05T12:08:06.520Z,13.17
2018-07-05T12:10:47.574Z,8.80
2018-07-05T12:13:28.658Z,7.63
2018-07-05T12:16:10.018Z,7.83
2018-07-05T12:18:52.163Z,7.77
2018-07-05T12:21:33.221Z,6.28
2018-07-05T12:24:14.224Z,7.10
2018-07-05T12:26:55.369Z,6.80
2018-07-05T12:29:36.238Z,7.60
2018-07-05T12:32:17.125Z,7.50
2018-07-05T12:34:58.383Z,7.10
2018-07-05T12:37:39.372Z,6.80
2018-07-05T12:40:20.524Z,7.60
2018-07-05T12:43:01.525Z,6.83
2018-07-05T12:45:43.024Z,7.97
2018-07-05T12:48:24.094Z,8.03
2018-07-05T12:51:04.967Z,6.53
2018-07-05T12:53:45.936Z,6.80
2018-07-05T12:56:27.015Z,7.95
2018-07-05T12:59:08.099Z,8.63
2018-07-05T13:01:48.974Z,8.50
2018-07-05T13:04:29.947Z,6.50
2018-07-05T13:07:10.884Z,7.33
2018-07-05T13:09:52.095Z,7.53
2018-07-05T13:12:33.186Z,7.00
2018-07-05T13:15:14.259Z,7.50
2018-07-05T13:17:55.315Z,7.72
2018-07-05T13:20:36.505Z,8.90
2018-07-05T13:23:17.353Z,8.05
2018-07-05T13:25:58.663Z,8.27
2018-07-05T13:28:39.822Z,10.43
2018-07-05T13:31:20.813Z,8.80
2018-07-05T13:34:01.698Z,9.40
2018-07-05T13:36:42.880Z,9.00
2018-07-05T13:39:23.808Z,8.63
2018-07-05T13:42:04.714Z,9.13
2018-07-05T13:44:45.694Z,8.50
2018-07-05T13:47:26.762Z,9.20
2018-07-05T13:50:08.079Z,8.43
2018-07-05T13:52:49.214Z,8.53
2018-07-05T13:55:30.224Z,8.37
2018-07-05T13:58:11.177Z,9.00
2018-07-05T14:00:51.955Z,9.90
2018-07-05T14:03:32.827Z,8.67
2018-07-05T14:06:14.220Z,9.90
2018-07-05T14:08:55.296Z,8.50
2018-07-05T14:11:36.161Z,12.57
2018-07-05T14:14:17.271Z,10.07
2018-07-05T14:16:59.540Z,9.53
2018-07-05T14:19:40.534Z,9.03
2018-07-05T14:22:21.798Z,9.10
2018-07-05T14:25:02.853Z,9.83
2018-07-05T14:27:43.749Z,9.07
2018-07-05T14:30:24.835Z,9.73
2018-07-05T14:33:05.919Z,11.07
2018-07-05T14:35:47.440Z,9.43
2018-07-05T14:38:28.860Z,8.93
2018-07-05T14:41:09.815Z,8.50
2018-07-05T14:43:51.961Z,8.70
2018-07-05T14:46:33.147Z,9.40
2018-07-05T14:49:14.012Z,8.13
2018-07-05T14:51:55.088Z,8.40
2018-07-05T14:54:37.189Z,7.63
2018-07-05T14:57:18.260Z,7.83
2018-07-05T14:59:59.364Z,8.70
2018-07-05T15:02:40.319Z,7.60
2018-07-05T15:05:21.305Z,7.90
2018-07-05T15:08:02.274Z,7.93
2018-07-05T15:10:43.222Z,7.97
2018-07-05T15:13:24.424Z,7.90
2018-07-05T15:16:05.496Z,7.43
2018-07-05T15:18:46.693Z,8.03
2018-07-05T15:21:27.855Z,7.63
2018-07-05T15:24:08.775Z,7.80
2018-07-05T15:26:50.548Z,7.70
2018-07-05T15:29:31.499Z,7.17
2018-07-05T15:32:12.377Z,7.50
2018-07-05T15:34:53.334Z,7.33
2018-07-05T15:37:34.342Z,6.87
2018-07-05T15:40:15.818Z,7.17
2018-07-05T15:42:56.645Z,8.83
2018-07-05T15:45:37.771Z,7.17
2018-07-05T15:48:18.948Z,7.83
2018-07-05T15:50:59.929Z,6.70
2018-07-05T15:53:41.092Z,6.60
2018-07-05T15:56:21.852Z,7.63
2018-07-05T15:59:02.942Z,7.20
2018-07-05T16:01:43.709Z,7.07
2018-07-05T16:04:24.579Z,7.60
2018-07-05T16:07:05.841Z,7.63
2018-07-05T16:09:46.647Z,6.60
2018-07-05T16:12:27.703Z,6.27
2018-07-05T16:15:08.841Z,6.73
2018-07-05T16:17:50.181Z,6.87
2018-07-05T16:20:31.145Z,7.10
2018-07-05T16:23:12.102Z,6.80
2018-07-05T16:25:53.915Z,6.77
2018-07-05T16:28:35.093Z,6.50
2018-07-05T16:31:16.032Z,6.53
2018-07-05T16:33:57.348Z,7.13
2018-07-05T16:36:38.328Z,6.63
2018-07-05T16:39:19.411Z,6.73
2018-07-05T16:42:00.277Z,6.83
2018-07-05T16:44:41.168Z,6.90
2018-07-05T16:47:22.450Z,6.90
2018-07-05T16:50:03.380Z,6.73
2018-07-05T16:52:44.600Z,6.97
2018-07-05T16:55:25.456Z,7.63
2018-07-05T16:58:06.531Z,7.20
2018-07-05T17:00:47.487Z,6.73
2018-07-05T17:03:27.985Z,6.57
2018-07-05T17:06:08.686Z,7.27
2018-07-05T17:08:49.741Z,7.03
2018-07-05T17:11:30.488Z,6.80
2018-07-05T17:14:11.173Z,6.90
2018-07-05T17:16:52.147Z,6.27
2018-07-05T17:19:33.307Z,7.17
2018-07-05T17:22:14.285Z,7.00
2018-07-05T17:24:55.326Z,6.97
2018-07-05T17:27:36.127Z,7.40
2018-07-05T17:30:17.182Z,6.87
2018-07-05T17:32:58.168Z,6.97
2018-07-05T17:35:39.127Z,7.23
2018-07-05T17:38:20.345Z,6.80
2018-07-05T17:41:01.172Z,7.27
2018-07-05T17:43:42.085Z,7.77
2018-07-05T17:46:23.251Z,6.93
2018-07-05T17:49:04.349Z,7.47
2018-07-05T17:51:45.341Z,7.13
2018-07-05T17:54:26.294Z,6.97
2018-07-05T17:57:07.378Z,6.83
2018-07-05T17:59:48.443Z,6.80
2018-07-05T18:02:29.319Z,6.87
2018-07-05T18:05:10.302Z,7.67
2018-07-05T18:07:51.252Z,7.63
2018-07-05T18:10:32.035Z,7.20
2018-07-05T18:13:13.018Z,7.20
2018-07-05T18:15:53.971Z,7.00
2018-07-05T18:18:35.068Z,7.70
2018-07-05T18:21:15.844Z,8.07
2018-07-05T18:23:56.911Z,8.37
2018-07-05T18:26:37.992Z,8.43
2018-07-05T18:29:18.873Z,8.30
2018-07-05T18:31:59.839Z,8.90
2018-07-05T18:34:40.864Z,8.73
2018-07-05T18:37:21.911Z,7.60
2018-07-05T18:40:02.923Z,7.50
2018-07-05T18:42:43.949Z,7.97
2018-07-05T18:45:24.815Z,8.03
2018-07-05T18:48:06.054Z,7.87
2018-07-05T18:50:46.968Z,7.93
2018-07-05T18:53:28.066Z,8.00
2018-07-05T18:56:08.993Z,8.47
2018-07-05T18:58:50.025Z,8.20
2018-07-05T19:01:30.973Z,8.83
2018-07-05T19:04:11.725Z,9.10
2018-07-05T19:06:52.513Z,9.50
2018-07-05T19:09:33.589Z,9.80
2018-07-05T19:12:14.457Z,9.40
2018-07-05T19:14:55.335Z,9.33
2018-07-05T19:17:36.400Z,9.73
2018-07-05T19:20:20.150Z,9.43
2018-07-05T19:23:01.228Z,9.13
2018-07-05T19:25:42.006Z,10.13
2018-07-05T19:28:23.064Z,10.87
2018-07-05T19:31:04.061Z,11.37
2018-07-05T19:33:45.025Z,10.30
2018-07-05T19:36:26.004Z,10.00
2018-07-05T19:39:07.286Z,10.30
2018-07-05T19:41:48.132Z,10.40
2018-07-05T19:44:29.644Z,10.20
2018-07-05T19:47:11.142Z,11.07
2018-07-05T19:49:53.396Z,10.20
2018-07-05T19:52:35.051Z,10.67
2018-07-05T19:55:16.828Z,11.10
2018-07-05T19:57:57.792Z,10.20
2018-07-05T20:00:38.679Z,10.37
2018-07-05T20:03:19.640Z,10.23
2018-07-05T20:06:00.625Z,11.40
2018-07-05T20:08:41.487Z,10.77
2018-07-05T20:11:22.563Z,11.60
2018-07-05T20:14:03.342Z,10.93
2018-07-05T20:16:44.314Z,11.00
2018-07-05T20:19:25.401Z,11.23
2018-07-05T20:22:10.271Z,11.33
2018-07-05T20:24:51.124Z,10.77
2018-07-05T20:27:32.330Z,12.40
2018-07-05T20:30:13.293Z,11.43
2018-07-05T20:32:54.876Z,11.47
2018-07-05T20:35:36.542Z,12.40
2018-07-05T20:38:17.544Z,11.90
2018-07-05T20:40:59.226Z,12.13
2018-07-05T20:43:40.829Z,12.23
2018-07-05T20:46:22.614Z,12.03
2018-07-05T20:49:04.418Z,11.80
2018-07-05T20:51:45.897Z,12.07
2018-07-05T20:54:28.755Z,11.80
2018-07-05T20:57:10.271Z,12.10
2018-07-05T20:59:51.595Z,12.00
2018-07-05T21:02:33.743Z,12.57
2018-07-05T21:05:15.600Z,12.20
2018-07-05T21:07:57.401Z,13.03
2018-07-05T21:10:39.381Z,13.13
2018-07-05T21:13:21.534Z,12.93
2018-07-05T21:16:03.520Z,13.93
2018-07-05T21:18:45.073Z,13.50
2018-07-05T21:21:26.453Z,13.07
2018-07-05T21:24:08.668Z,13.73
2018-07-05T21:26:50.674Z,13.40
2018-07-05T21:29:32.054Z,13.70
2018-07-05T21:32:13.678Z,14.40
2018-07-05T21:34:55.472Z,14.43
2018-07-05T21:37:37.630Z,14.77
2018-07-05T21:40:19.022Z,14.67
2018-07-05T21:42:59.980Z,15.27
2018-07-05T21:45:42.004Z,14.70
2018-07-05T21:48:24.507Z,14.67
2018-07-05T21:51:05.888Z,14.50
2018-07-05T21:53:47.058Z,15.47
2018-07-05T21:56:29.026Z,15.70
2018-07-05T21:59:10.654Z,15.40
2018-07-05T22:01:52.473Z,14.70
2018-07-05T22:04:33.393Z,14.30
2018-07-05T22:07:15.423Z,15.17
2018-07-05T22:09:57.014Z,14.37
2018-07-05T22:12:39.107Z,14.03
2018-07-05T22:15:21.118Z,15.53
2018-07-05T22:18:07.919Z,15.10
2018-07-05T22:20:54.523Z,15.60
2018-07-05T22:23:40.921Z,15.97
2018-07-05T22:26:27.223Z,16.67
2018-07-05T22:29:13.653Z,16.10
2018-07-05T22:31:57.406Z,17.43
2018-07-05T22:34:39.369Z,15.97
2018-07-05T22:37:21.292Z,16.90
2018-07-05T22:40:03.046Z,16.87
2018-07-05T22:42:45.053Z,17.20
2018-07-05T22:45:26.873Z,19.03
2018-07-05T22:48:09.187Z,19.23
2018-07-05T22:50:51.150Z,17.60
2018-07-05T22:53:32.890Z,19.13
2018-07-05T22:56:15.008Z,18.60
2018-07-05T22:58:57.260Z,19.37
2018-07-05T23:01:39.027Z,20.07
2018-07-05T23:04:20.580Z,19.20
2018-07-05T23:07:02.326Z,17.97
2018-07-05T23:09:43.732Z,18.20
2018-07-05T23:12:25.541Z,18.43
2018-07-05T23:15:07.321Z,18.77
2018-07-05T23:17:49.770Z,18.70
2018-07-05T23:20:32.253Z,18.27
2018-07-05T23:23:13.911Z,18.00
2018-07-05T23:25:56.015Z,17.73
2018-07-05T23:28:38.205Z,17.97
2018-07-05T23:31:20.728Z,18.07
2018-07-05T23:34:02.544Z,18.20
2018-07-05T23:36:44.726Z,17.13
2018-07-05T23:39:26.522Z,17.53
2018-07-05T23:42:08.059Z,17.00
2018-07-05T23:44:49.751Z,17.60
2018-07-05T23:47:31.904Z,17.27
2018-07-05T23:50:13.774Z,16.93
2018-07-05T23:52:55.371Z,17.97
2018-07-05T23:55:37.005Z,17.07
2018-07-05T23:58:18.690Z,17.37
